»·PEaware :: N524ML KIFP-KGCN

N524ML :: KIFP-KGCN

FLIGHT INFORMATION

Flight Status: Arrived
Operator: Privately registered:
United States
More flights under this callsign
Pilot: Max L. (14194)
Aircraft: MOONEY M-20 201 202 205 220 ATS MSE
(M20P)
More flights by this aircraft type
Origin: KIFP Laughlin/Bullhead Intl
United States
Destination: KGCN Grand Canyon Natl Park
United States
More flights between these airports :: More routes between these airports
Route:
File this flight plan on PilotEdge
Remarks:
Altitude:
(Current/Filed)
11,500ft
Speed:
(Current/Filed)
180kts
Departed: 05-Aug-18 05:37 PM
Arrived: 05-Aug-18 06:30 PM
Distance/Time
Traveled:
127nm/0:53
Distance/Time
To Go:
Arrived

Flight Plot

Page will automatically refresh every two minutes.


Map Options




Map Legend


Flown Route
Filed Route
Departure Airport
Arrival Airport
Navaid (VOR, NDB)
Fix

Horizontal Profiles

Position Reports

Time Latitude Longitude Heading Altitude Ground
Speed
05-Aug-18 17:28 35.159758 -114.556367 266 697ft 0kts
05-Aug-18 17:29 35.159758 -114.556367 266 697ft 0kts
05-Aug-18 17:30 35.159758 -114.556367 266 697ft 0kts
05-Aug-18 17:31 35.159745 -114.556458 251 697ft 5kts
05-Aug-18 17:32 35.162479 -114.558543 355 697ft 26kts
05-Aug-18 17:33 35.166417 -114.559092 274 697ft 0kts
05-Aug-18 17:34 35.166417 -114.559093 274 697ft 0kts
05-Aug-18 17:35 35.166417 -114.559093 274 697ft 0kts
05-Aug-18 17:36 35.166417 -114.559093 274 697ft 0kts
05-Aug-18 17:37 35.165821 -114.560091 202 697ft 13kts
05-Aug-18 17:38 35.150341 -114.558923 180 868ft 88kts
05-Aug-18 17:39 35.128077 -114.555196 143 1633ft 81kts
05-Aug-18 17:40 35.130982 -114.527741 51 2323ft 96kts
05-Aug-18 17:41 35.149431 -114.504502 43 3031ft 92kts
05-Aug-18 17:42 35.171399 -114.486581 21 3631ft 99kts
05-Aug-18 17:43 35.193380 -114.477893 13 4165ft 108kts
05-Aug-18 17:44 35.224180 -114.470584 6 4874ft 124kts
05-Aug-18 17:45 35.249553 -114.465989 4 5774ft 109kts
05-Aug-18 17:46 35.277388 -114.458058 15 6686ft 103kts
05-Aug-18 17:47 35.300089 -114.435928 72 7423ft 113kts
05-Aug-18 17:48 35.306204 -114.395058 85 7963ft 134kts
05-Aug-18 17:49 35.312232 -114.354662 79 8942ft 113kts
05-Aug-18 17:50 35.320165 -114.317670 76 9764ft 112kts
05-Aug-18 17:51 35.330073 -114.281265 72 10546ft 113kts
05-Aug-18 17:52 35.342013 -114.245628 69 11302ft 113kts
05-Aug-18 17:53 35.355933 -114.209258 69 11751ft 140kts
05-Aug-18 17:54 35.374364 -114.158367 69 11746ft 180kts
05-Aug-18 17:55 35.398509 -114.100479 63 11745ft 198kts
05-Aug-18 17:56 35.424745 -114.039387 63 11745ft 205kts
05-Aug-18 17:57 35.451391 -113.977237 63 11745ft 207kts
05-Aug-18 17:58 35.478306 -113.914434 63 11745ft 208kts
05-Aug-18 17:59 35.502726 -113.857451 63 11745ft 208kts
05-Aug-18 18:00 35.529723 -113.794462 63 11745ft 209kts
05-Aug-18 18:01 35.556770 -113.731368 63 11746ft 209kts
05-Aug-18 18:02 35.583898 -113.668098 63 11746ft 209kts
05-Aug-18 18:03 35.610968 -113.604972 63 11746ft 209kts
05-Aug-18 18:04 35.638063 -113.541803 63 11746ft 209kts
05-Aug-18 18:05 35.665248 -113.478435 63 11747ft 209kts
05-Aug-18 18:06 35.691514 -113.417222 63 11747ft 209kts
05-Aug-18 18:07 35.718271 -113.354888 63 11745ft 210kts
05-Aug-18 18:08 35.745262 -113.293040 63 11736ft 209kts
05-Aug-18 18:09 35.772771 -113.230091 63 11777ft 207kts
05-Aug-18 18:10 35.793259 -113.166745 79 11840ft 203kts
05-Aug-18 18:11 35.806540 -113.099000 79 11908ft 203kts
05-Aug-18 18:12 35.819596 -113.032129 79 11977ft 203kts
05-Aug-18 18:13 35.832567 -112.964175 78 12041ft 204kts
05-Aug-18 18:14 35.846131 -112.895528 77 11950ft 210kts
05-Aug-18 18:15 35.862649 -112.826165 72 11950ft 211kts
05-Aug-18 18:16 35.882444 -112.758131 68 11950ft 212kts
05-Aug-18 18:17 35.905666 -112.691043 64 11951ft 212kts
05-Aug-18 18:18 35.920370 -112.621966 79 11951ft 212kts
05-Aug-18 18:19 35.932331 -112.550622 79 11951ft 212kts
05-Aug-18 18:20 35.944267 -112.479539 79 11951ft 212kts
05-Aug-18 18:21 35.950345 -112.406504 88 11327ft 218kts
05-Aug-18 18:22 35.952452 -112.335457 90 10251ft 185kts
05-Aug-18 18:23 35.953958 -112.279750 89 9187ft 153kts
05-Aug-18 18:24 35.955351 -112.232103 92 8324ft 129kts
05-Aug-18 18:25 35.959287 -112.193974 129 8013ft 101kts
05-Aug-18 18:26 35.934668 -112.180318 172 7739ft 104kts
05-Aug-18 18:27 35.925375 -112.152728 54 7629ft 107kts
05-Aug-18 18:28 35.942931 -112.121434 50 7579ft 108kts
05-Aug-18 18:29 35.965275 -112.118847 305 7276ft 96kts
05-Aug-18 18:30 35.956860 -112.142201 225 6603ft 59kts
05-Aug-18 18:31 35.953508 -112.144294 153 6603ft 0kts
05-Aug-18 18:32 35.952951 -112.144449 140 6603ft 0kts
05-Aug-18 18:33 35.953777 -112.142897 43 6603ft 3kts

Navigation Log

Ident Type
1. KIFP Airport
2. KGCN Airport